sensor_id;sensor_type;location;lat;lon;timestamp;P1;durP1;ratioP1;P2;durP2;ratioP2
10381;SDS011;11635;53.636;10.120;2023-04-03T01:26:11;5.78;;;2.83;;
10381;SDS011;11635;53.636;10.120;2023-04-03T01:28:38;5.38;;;2.42;;
10381;SDS011;11635;53.636;10.120;2023-04-03T01:31:07;5.57;;;2.63;;
10381;SDS011;11635;53.636;10.120;2023-04-03T01:33:36;7.47;;;2.50;;
10381;SDS011;11635;53.636;10.120;2023-04-03T01:36:04;5.70;;;2.20;;
10381;SDS011;11635;53.636;10.120;2023-04-03T01:38:31;7.03;;;2.58;;
10381;SDS011;11635;53.636;10.120;2023-04-03T01:40:57;3.85;;;2.45;;
10381;SDS011;11635;53.636;10.120;2023-04-03T01:43:23;5.35;;;2.50;;
10381;SDS011;11635;53.636;10.120;2023-04-03T01:45:50;6.28;;;2.72;;
10381;SDS011;11635;53.636;10.120;2023-04-03T01:48:18;4.25;;;2.25;;
10381;SDS011;11635;53.636;10.120;2023-04-03T01:50:46;5.10;;;2.42;;
10381;SDS011;11635;53.636;10.120;2023-04-03T01:53:12;4.68;;;2.13;;
10381;SDS011;11635;53.636;10.120;2023-04-03T01:55:39;3.97;;;2.20;;
10381;SDS011;11635;53.636;10.120;2023-04-03T01:58:06;6.07;;;2.50;;
10381;SDS011;11635;53.636;10.120;2023-04-03T02:00:32;3.70;;;2.47;;
10381;SDS011;11635;53.636;10.120;2023-04-03T02:02:58;7.80;;;3.45;;
10381;SDS011;11635;53.636;10.120;2023-04-03T02:05:25;5.18;;;3.30;;
10381;SDS011;11635;53.636;10.120;2023-04-03T02:07:53;3.88;;;2.50;;
10381;SDS011;11635;53.636;10.120;2023-04-03T02:10:20;8.95;;;2.72;;
10381;SDS011;11635;53.636;10.120;2023-04-03T02:12:46;4.25;;;2.78;;
10381;SDS011;11635;53.636;10.120;2023-04-03T02:15:12;5.20;;;2.65;;
10381;SDS011;11635;53.636;10.120;2023-04-03T02:17:39;6.20;;;3.08;;
10381;SDS011;11635;53.636;10.120;2023-04-03T02:20:06;7.40;;;2.88;;
10381;SDS011;11635;53.636;10.120;2023-04-03T02:22:32;5.38;;;3.13;;
10381;SDS011;11635;53.636;10.120;2023-04-03T02:25:00;6.28;;;3.17;;
10381;SDS011;11635;53.636;10.120;2023-04-03T02:27:27;8.25;;;3.33;;
10381;SDS011;11635;53.636;10.120;2023-04-03T02:29:53;8.10;;;3.45;;
10381;SDS011;11635;53.636;10.120;2023-04-03T02:32:20;4.93;;;3.40;;
10381;SDS011;11635;53.636;10.120;2023-04-03T02:34:46;4.70;;;3.10;;
10381;SDS011;11635;53.636;10.120;2023-04-03T02:37:12;15.02;;;4.38;;
10381;SDS011;11635;53.636;10.120;2023-04-03T02:39:39;6.45;;;3.28;;
10381;SDS011;11635;53.636;10.120;2023-04-03T02:42:07;11.50;;;3.85;;
10381;SDS011;11635;53.636;10.120;2023-04-03T02:44:33;6.90;;;4.13;;
10381;SDS011;11635;53.636;10.120;2023-04-03T02:47:00;6.10;;;3.33;;
10381;SDS011;11635;53.636;10.120;2023-04-03T02:49:27;11.15;;;3.85;;
10381;SDS011;11635;53.636;10.120;2023-04-03T02:51:54;8.07;;;3.78;;
10381;SDS011;11635;53.636;10.120;2023-04-03T02:54:20;8.68;;;4.60;;
10381;SDS011;11635;53.636;10.120;2023-04-03T02:56:48;6.95;;;3.65;;
10381;SDS011;11635;53.636;10.120;2023-04-03T02:59:16;8.60;;;4.20;;
10381;SDS011;11635;53.636;10.120;2023-04-03T03:01:42;8.00;;;3.97;;
10381;SDS011;11635;53.636;10.120;2023-04-03T03:04:09;6.65;;;4.18;;
10381;SDS011;11635;53.636;10.120;2023-04-03T03:06:35;12.27;;;4.57;;
10381;SDS011;11635;53.636;10.120;2023-04-03T03:09:02;6.60;;;3.70;;
10381;SDS011;11635;53.636;10.120;2023-04-03T03:13:54;13.23;;;5.43;;
10381;SDS011;11635;53.636;10.120;2023-04-03T03:16:22;6.60;;;4.38;;
10381;SDS011;11635;53.636;10.120;2023-04-03T03:18:49;9.85;;;4.03;;
10381;SDS011;11635;53.636;10.120;2023-04-03T03:21:15;7.22;;;4.13;;
10381;SDS011;11635;53.636;10.120;2023-04-03T03:23:42;8.25;;;4.38;;
10381;SDS011;11635;53.636;10.120;2023-04-03T03:26:09;11.93;;;4.20;;
10381;SDS011;11635;53.636;10.120;2023-04-03T03:28:36;6.82;;;4.20;;
10381;SDS011;11635;53.636;10.120;2023-04-03T03:31:03;8.35;;;4.30;;
10381;SDS011;11635;53.636;10.120;2023-04-03T03:33:32;7.90;;;3.88;;
10381;SDS011;11635;53.636;10.120;2023-04-03T03:35:58;13.50;;;4.75;;
10381;SDS011;11635;53.636;10.120;2023-04-03T03:38:25;8.73;;;4.35;;
10381;SDS011;11635;53.636;10.120;2023-04-03T03:40:52;10.38;;;4.40;;
10381;SDS011;11635;53.636;10.120;2023-04-03T03:43:18;7.80;;;4.53;;
10381;SDS011;11635;53.636;10.120;2023-04-03T03:45:46;6.57;;;4.32;;
10381;SDS011;11635;53.636;10.120;2023-04-03T03:48:15;5.75;;;3.90;;
10381;SDS011;11635;53.636;10.120;2023-04-03T03:50:43;8.18;;;4.18;;
10381;SDS011;11635;53.636;10.120;2023-04-03T03:53:10;8.70;;;4.10;;
10381;SDS011;11635;53.636;10.120;2023-04-03T03:55:36;11.35;;;5.90;;
10381;SDS011;11635;53.636;10.120;2023-04-03T03:58:03;17.83;;;14.02;;
10381;SDS011;11635;53.636;10.120;2023-04-03T04:00:29;13.82;;;9.88;;
10381;SDS011;11635;53.636;10.120;2023-04-03T04:02:56;10.93;;;6.68;;
10381;SDS011;11635;53.636;10.120;2023-04-03T04:05:22;8.60;;;5.55;;
10381;SDS011;11635;53.636;10.120;2023-04-03T04:07:50;8.77;;;4.68;;
10381;SDS011;11635;53.636;10.120;2023-04-03T04:10:16;8.48;;;4.05;;
10381;SDS011;11635;53.636;10.120;2023-04-03T04:12:43;7.03;;;4.13;;
10381;SDS011;11635;53.636;10.120;2023-04-03T04:15:09;10.35;;;4.50;;
10381;SDS011;11635;53.636;10.120;2023-04-03T04:17:36;9.73;;;4.57;;
10381;SDS011;11635;53.636;10.120;2023-04-03T04:20:02;10.27;;;4.47;;
10381;SDS011;11635;53.636;10.120;2023-04-03T04:22:30;7.00;;;4.60;;
10381;SDS011;11635;53.636;10.120;2023-04-03T04:24:58;7.57;;;4.70;;
10381;SDS011;11635;53.636;10.120;2023-04-03T04:27:24;9.50;;;4.53;;
10381;SDS011;11635;53.636;10.120;2023-04-03T04:29:50;7.18;;;3.92;;
10381;SDS011;11635;53.636;10.120;2023-04-03T04:32:17;6.30;;;4.00;;
10381;SDS011;11635;53.636;10.120;2023-04-03T04:34:43;9.60;;;4.72;;
10381;SDS011;11635;53.636;10.120;2023-04-03T04:37:09;9.93;;;5.10;;
10381;SDS011;11635;53.636;10.120;2023-04-03T04:39:36;7.45;;;4.05;;
10381;SDS011;11635;53.636;10.120;2023-04-03T04:42:03;13.07;;;5.20;;
10381;SDS011;11635;53.636;10.120;2023-04-03T04:44:32;9.57;;;5.37;;
10381;SDS011;11635;53.636;10.120;2023-04-03T04:46:58;10.63;;;5.32;;
10381;SDS011;11635;53.636;10.120;2023-04-03T04:49:25;5.80;;;4.03;;
10381;SDS011;11635;53.636;10.120;2023-04-03T04:51:52;8.80;;;4.07;;
10381;SDS011;11635;53.636;10.120;2023-04-03T04:54:18;6.03;;;3.80;;
10381;SDS011;11635;53.636;10.120;2023-04-03T04:56:44;7.65;;;4.32;;
10381;SDS011;11635;53.636;10.120;2023-04-03T04:59:12;12.77;;;4.32;;
10381;SDS011;11635;53.636;10.120;2023-04-03T05:01:38;10.93;;;4.47;;
10381;SDS011;11635;53.636;10.120;2023-04-03T05:04:05;8.07;;;4.78;;
10381;SDS011;11635;53.636;10.120;2023-04-03T05:06:31;9.68;;;4.75;;
10381;SDS011;11635;53.636;10.120;2023-04-03T05:08:58;5.78;;;4.45;;
10381;SDS011;11635;53.636;10.120;2023-04-03T05:11:24;8.45;;;3.78;;
10381;SDS011;11635;53.636;10.120;2023-04-03T05:13:51;10.02;;;4.47;;
10381;SDS011;11635;53.636;10.120;2023-04-03T05:16:18;7.55;;;4.47;;
10381;SDS011;11635;53.636;10.120;2023-04-03T05:18:45;6.70;;;3.88;;
10381;SDS011;11635;53.636;10.120;2023-04-03T05:21:11;9.23;;;4.28;;
10381;SDS011;11635;53.636;10.120;2023-04-03T05:23:37;8.52;;;4.40;;
10381;SDS011;11635;53.636;10.120;2023-04-03T05:26:04;5.88;;;3.40;;
10381;SDS011;11635;53.636;10.120;2023-04-03T05:28:30;11.85;;;5.60;;
10381;SDS011;11635;53.636;10.120;2023-04-03T05:30:58;10.65;;;4.85;;
10381;SDS011;11635;53.636;10.120;2023-04-03T05:33:26;6.05;;;4.30;;
10381;SDS011;11635;53.636;10.120;2023-04-03T05:35:52;6.40;;;4.43;;
10381;SDS011;11635;53.636;10.120;2023-04-03T05:38:19;6.63;;;3.83;;
10381;SDS011;11635;53.636;10.120;2023-04-03T05:40:46;6.43;;;3.78;;
10381;SDS011;11635;53.636;10.120;2023-04-03T05:43:12;8.93;;;4.25;;
10381;SDS011;11635;53.636;10.120;2023-04-03T05:45:39;6.28;;;3.97;;
10381;SDS011;11635;53.636;10.120;2023-04-03T05:48:06;7.78;;;3.90;;
10381;SDS011;11635;53.636;10.120;2023-04-03T05:50:33;6.80;;;3.92;;
10381;SDS011;11635;53.636;10.120;2023-04-03T05:53:00;6.32;;;4.10;;
10381;SDS011;11635;53.636;10.120;2023-04-03T05:55:28;9.00;;;3.72;;
10381;SDS011;11635;53.636;10.120;2023-04-03T05:57:54;5.90;;;3.45;;
10381;SDS011;11635;53.636;10.120;2023-04-03T06:00:20;7.18;;;3.80;;
10381;SDS011;11635;53.636;10.120;2023-04-03T06:02:47;6.95;;;3.55;;
10381;SDS011;11635;53.636;10.120;2023-04-03T06:05:13;7.78;;;3.60;;
10381;SDS011;11635;53.636;10.120;2023-04-03T06:07:41;10.68;;;3.60;;
10381;SDS011;11635;53.636;10.120;2023-04-03T06:10:10;8.07;;;3.75;;
10381;SDS011;11635;53.636;10.120;2023-04-03T06:12:37;6.22;;;3.20;;
10381;SDS011;11635;53.636;10.120;2023-04-03T06:15:04;5.72;;;3.42;;
10381;SDS011;11635;53.636;10.120;2023-04-03T06:17:30;7.95;;;3.28;;
10381;SDS011;11635;53.636;10.120;2023-04-03T06:19:57;6.72;;;3.63;;
10381;SDS011;11635;53.636;10.120;2023-04-03T06:22:23;5.75;;;3.00;;
10381;SDS011;11635;53.636;10.120;2023-04-03T06:24:52;3.70;;;2.30;;
10381;SDS011;11635;53.636;10.120;2023-04-03T06:27:18;4.18;;;2.38;;
10381;SDS011;11635;53.636;10.120;2023-04-03T06:29:44;4.88;;;2.58;;
10381;SDS011;11635;53.636;10.120;2023-04-03T06:32:11;4.28;;;2.38;;
10381;SDS011;11635;53.636;10.120;2023-04-03T06:34:37;3.90;;;2.10;;
10381;SDS011;11635;53.636;10.120;2023-04-03T06:37:03;4.28;;;2.28;;
10381;SDS011;11635;53.636;10.120;2023-04-03T06:39:30;6.40;;;2.47;;
10381;SDS011;11635;53.636;10.120;2023-04-03T06:41:57;4.30;;;2.38;;
10381;SDS011;11635;53.636;10.120;2023-04-03T06:44:24;5.80;;;2.17;;
10381;SDS011;11635;53.636;10.120;2023-04-03T06:46:51;3.88;;;2.20;;
10381;SDS011;11635;53.636;10.120;2023-04-03T06:49:20;5.43;;;2.30;;
10381;SDS011;11635;53.636;10.120;2023-04-03T06:51:47;3.88;;;2.13;;
10381;SDS011;11635;53.636;10.120;2023-04-03T06:54:13;3.75;;;2.03;;
10381;SDS011;11635;53.636;10.120;2023-04-03T06:56:39;2.50;;;2.08;;
10381;SDS011;11635;53.636;10.120;2023-04-03T06:59:07;4.63;;;2.47;;
10381;SDS011;11635;53.636;10.120;2023-04-03T07:01:34;3.53;;;2.35;;
10381;SDS011;11635;53.636;10.120;2023-04-03T07:04:00;5.35;;;2.55;;
10381;SDS011;11635;53.636;10.120;2023-04-03T07:06:27;7.57;;;2.65;;
10381;SDS011;11635;53.636;10.120;2023-04-03T07:08:53;5.28;;;2.53;;
10381;SDS011;11635;53.636;10.120;2023-04-03T07:11:20;3.88;;;2.40;;
10381;SDS011;11635;53.636;10.120;2023-04-03T07:13:47;3.63;;;2.17;;
10381;SDS011;11635;53.636;10.120;2023-04-03T07:16:15;4.25;;;2.15;;
10381;SDS011;11635;53.636;10.120;2023-04-03T07:18:42;4.85;;;2.70;;
10381;SDS011;11635;53.636;10.120;2023-04-03T07:21:08;7.60;;;1.98;;
10381;SDS011;11635;53.636;10.120;2023-04-03T07:23:35;3.95;;;1.95;;
10381;SDS011;11635;53.636;10.120;2023-04-03T07:26:01;2.85;;;1.67;;
10381;SDS011;11635;53.636;10.120;2023-04-03T07:28:27;4.93;;;2.08;;
10381;SDS011;11635;53.636;10.120;2023-04-03T07:30:59;5.20;;;1.77;;
10381;SDS011;11635;53.636;10.120;2023-04-03T07:33:27;4.30;;;1.92;;
10381;SDS011;11635;53.636;10.120;2023-04-03T07:35:53;6.95;;;1.95;;
10381;SDS011;11635;53.636;10.120;2023-04-03T07:38:19;6.30;;;1.80;;
10381;SDS011;11635;53.636;10.120;2023-04-03T07:40:46;4.82;;;1.77;;
10381;SDS011;11635;53.636;10.120;2023-04-03T07:43:12;6.00;;;1.83;;
10381;SDS011;11635;53.636;10.120;2023-04-03T07:45:39;3.25;;;1.63;;
10381;SDS011;11635;53.636;10.120;2023-04-03T07:48:05;2.72;;;1.58;;
10381;SDS011;11635;53.636;10.120;2023-04-03T07:50:33;4.60;;;1.88;;
10381;SDS011;11635;53.636;10.120;2023-04-03T07:53:01;2.95;;;1.55;;
10381;SDS011;11635;53.636;10.120;2023-04-03T07:55:27;2.85;;;1.73;;
10381;SDS011;11635;53.636;10.120;2023-04-03T07:57:54;2.72;;;1.40;;
10381;SDS011;11635;53.636;10.120;2023-04-03T08:00:21;2.10;;;1.45;;
10381;SDS011;11635;53.636;10.120;2023-04-03T08:02:48;4.63;;;1.75;;
10381;SDS011;11635;53.636;10.120;2023-04-03T08:05:16;3.10;;;1.60;;
10381;SDS011;11635;53.636;10.120;2023-04-03T08:07:44;2.85;;;1.40;;
10381;SDS011;11635;53.636;10.120;2023-04-03T08:10:10;4.60;;;1.60;;
10381;SDS011;11635;53.636;10.120;2023-04-03T08:12:37;7.40;;;1.83;;
10381;SDS011;11635;53.636;10.120;2023-04-03T08:15:03;2.17;;;1.00;;
10381;SDS011;11635;53.636;10.120;2023-04-03T08:17:30;3.85;;;1.50;;
10381;SDS011;11635;53.636;10.120;2023-04-03T08:19:56;3.03;;;1.55;;
10381;SDS011;11635;53.636;10.120;2023-04-03T08:22:23;1.98;;;1.40;;
10381;SDS011;11635;53.636;10.120;2023-04-03T08:24:51;3.30;;;1.67;;
10381;SDS011;11635;53.636;10.120;2023-04-03T08:27:17;3.40;;;1.63;;
10381;SDS011;11635;53.636;10.120;2023-04-03T08:29:43;4.72;;;1.63;;
10381;SDS011;11635;53.636;10.120;2023-04-03T08:32:10;4.15;;;1.70;;
10381;SDS011;11635;53.636;10.120;2023-04-03T08:34:37;3.40;;;1.67;;
10381;SDS011;11635;53.636;10.120;2023-04-03T08:37:04;4.03;;;1.65;;
10381;SDS011;11635;53.636;10.120;2023-04-03T08:39:31;2.45;;;1.40;;
10381;SDS011;11635;53.636;10.120;2023-04-03T08:41:59;2.83;;;1.30;;
10381;SDS011;11635;53.636;10.120;2023-04-03T08:44:31;4.18;;;1.15;;
10381;SDS011;11635;53.636;10.120;2023-04-03T08:47:04;2.40;;;1.40;;
10381;SDS011;11635;53.636;10.120;2023-04-03T08:49:37;2.15;;;1.27;;
10381;SDS011;11635;53.636;10.120;2023-04-03T08:52:08;2.08;;;0.80;;
10381;SDS011;11635;53.636;10.120;2023-04-03T08:54:40;3.22;;;1.20;;
10381;SDS011;11635;53.636;10.120;2023-04-03T08:57:10;1.73;;;1.15;;
10381;SDS011;11635;53.636;10.120;2023-04-03T08:59:37;2.22;;;1.25;;
10381;SDS011;11635;53.636;10.120;2023-04-03T09:02:12;2.35;;;0.93;;
10381;SDS011;11635;53.636;10.120;2023-04-03T09:04:42;2.50;;;1.20;;
10381;SDS011;11635;53.636;10.120;2023-04-03T09:07:13;1.67;;;1.20;;
10381;SDS011;11635;53.636;10.120;2023-04-03T09:09:42;1.20;;;1.00;;
10381;SDS011;11635;53.636;10.120;2023-04-03T09:12:13;3.25;;;1.20;;
10381;SDS011;11635;53.636;10.120;2023-04-03T09:14:42;2.20;;;1.10;;
10381;SDS011;11635;53.636;10.120;2023-04-03T09:17:13;1.92;;;1.00;;
10381;SDS011;11635;53.636;10.120;2023-04-03T09:19:43;2.17;;;1.10;;
10381;SDS011;11635;53.636;10.120;2023-04-03T09:22:13;2.70;;;1.02;;
10381;SDS011;11635;53.636;10.120;2023-04-03T09:24:42;2.55;;;1.00;;
10381;SDS011;11635;53.636;10.120;2023-04-03T09:27:10;3.03;;;1.25;;
10381;SDS011;11635;53.636;10.120;2023-04-03T09:29:39;3.67;;;1.17;;
10381;SDS011;11635;53.636;10.120;2023-04-03T09:32:12;2.40;;;1.00;;
10381;SDS011;11635;53.636;10.120;2023-04-03T09:34:42;2.03;;;1.30;;
10381;SDS011;11635;53.636;10.120;2023-04-03T09:37:09;3.30;;;1.02;;
10381;SDS011;11635;53.636;10.120;2023-04-03T09:39:48;2.00;;;0.88;;
10381;SDS011;11635;53.636;10.120;2023-04-03T09:42:16;1.50;;;0.90;;
10381;SDS011;11635;53.636;10.120;2023-04-03T09:44:53;1.48;;;1.00;;
10381;SDS011;11635;53.636;10.120;2023-04-03T09:47:22;4.68;;;1.35;;
10381;SDS011;11635;53.636;10.120;2023-04-03T09:49:49;1.92;;;1.05;;
10381;SDS011;11635;53.636;10.120;2023-04-03T09:52:19;1.30;;;0.80;;
10381;SDS011;11635;53.636;10.120;2023-04-03T09:54:45;2.88;;;1.23;;
10381;SDS011;11635;53.636;10.120;2023-04-03T09:57:12;1.60;;;1.15;;
10381;SDS011;11635;53.636;10.120;2023-04-03T09:59:41;2.38;;;0.90;;
10381;SDS011;11635;53.636;10.120;2023-04-03T10:02:20;2.53;;;1.00;;
10381;SDS011;11635;53.636;10.120;2023-04-03T10:04:47;2.17;;;1.00;;
10381;SDS011;11635;53.636;10.120;2023-04-03T10:07:25;1.42;;;0.90;;
10381;SDS011;11635;53.636;10.120;2023-04-03T10:09:54;1.25;;;0.80;;
10381;SDS011;11635;53.636;10.120;2023-04-03T10:12:21;1.63;;;0.90;;
10381;SDS011;11635;53.636;10.120;2023-04-03T10:14:53;2.70;;;0.95;;
10381;SDS011;11635;53.636;10.120;2023-04-03T10:17:23;1.48;;;1.10;;
10381;SDS011;11635;53.636;10.120;2023-04-03T10:19:53;2.60;;;1.20;;
10381;SDS011;11635;53.636;10.120;2023-04-03T10:22:24;1.20;;;0.90;;
10381;SDS011;11635;53.636;10.120;2023-04-03T10:24:58;1.58;;;1.02;;
10381;SDS011;11635;53.636;10.120;2023-04-03T10:27:29;4.75;;;1.10;;
10381;SDS011;11635;53.636;10.120;2023-04-03T10:29:59;1.92;;;0.88;;
10381;SDS011;11635;53.636;10.120;2023-04-03T10:32:39;2.72;;;1.52;;
10381;SDS011;11635;53.636;10.120;2023-04-03T10:35:10;2.42;;;2.00;;
10381;SDS011;11635;53.636;10.120;2023-04-03T10:37:41;2.92;;;1.75;;
10381;SDS011;11635;53.636;10.120;2023-04-03T10:40:19;2.58;;;1.10;;
10381;SDS011;11635;53.636;10.120;2023-04-03T10:42:49;1.33;;;0.82;;
10381;SDS011;11635;53.636;10.120;2023-04-03T10:45:19;2.63;;;1.20;;
10381;SDS011;11635;53.636;10.120;2023-04-03T10:47:50;4.53;;;1.20;;
10381;SDS011;11635;53.636;10.120;2023-04-03T10:50:27;3.53;;;1.33;;
10381;SDS011;11635;53.636;10.120;2023-04-03T10:52:57;4.57;;;1.55;;
10381;SDS011;11635;53.636;10.120;2023-04-03T10:55:30;1.88;;;1.27;;
10381;SDS011;11635;53.636;10.120;2023-04-03T10:57:58;2.67;;;1.20;;
10381;SDS011;11635;53.636;10.120;2023-04-03T11:00:26;2.80;;;1.13;;
10381;SDS011;11635;53.636;10.120;2023-04-03T11:02:57;2.40;;;1.13;;
10381;SDS011;11635;53.636;10.120;2023-04-03T11:05:26;1.10;;;0.82;;
10381;SDS011;11635;53.636;10.120;2023-04-03T11:07:57;3.92;;;1.30;;
10381;SDS011;11635;53.636;10.120;2023-04-03T11:10:30;3.00;;;1.10;;
10381;SDS011;11635;53.636;10.120;2023-04-03T11:12:58;1.60;;;0.90;;
10381;SDS011;11635;53.636;10.120;2023-04-03T11:15:28;2.58;;;0.90;;
10381;SDS011;11635;53.636;10.120;2023-04-03T11:17:58;3.17;;;0.90;;
10381;SDS011;11635;53.636;10.120;2023-04-03T11:20:26;1.90;;;0.90;;
10381;SDS011;11635;53.636;10.120;2023-04-03T11:22:54;1.77;;;1.30;;
10381;SDS011;11635;53.636;10.120;2023-04-03T11:25:24;2.28;;;1.02;;
10381;SDS011;11635;53.636;10.120;2023-04-03T11:27:54;2.60;;;1.17;;
10381;SDS011;11635;53.636;10.120;2023-04-03T11:30:22;3.10;;;1.20;;
10381;SDS011;11635;53.636;10.120;2023-04-03T11:33:00;1.45;;;1.10;;
10381;SDS011;11635;53.636;10.120;2023-04-03T11:35:31;4.13;;;1.50;;
10381;SDS011;11635;53.636;10.120;2023-04-03T11:37:58;3.17;;;1.40;;
10381;SDS011;11635;53.636;10.120;2023-04-03T11:40:27;3.55;;;1.60;;
10381;SDS011;11635;53.636;10.120;2023-04-03T11:42:55;2.55;;;1.48;;
10381;SDS011;11635;53.636;10.120;2023-04-03T11:45:33;4.72;;;1.38;;
10381;SDS011;11635;53.636;10.120;2023-04-03T11:48:03;2.97;;;1.42;;
10381;SDS011;11635;53.636;10.120;2023-04-03T11:50:31;3.10;;;1.25;;
10381;SDS011;11635;53.636;10.120;2023-04-03T11:53:01;3.15;;;1.40;;
10381;SDS011;11635;53.636;10.120;2023-04-03T11:55:41;1.65;;;1.17;;
10381;SDS011;11635;53.636;10.120;2023-04-03T11:58:11;1.23;;;0.98;;
10381;SDS011;11635;53.636;10.120;2023-04-03T12:00:49;3.08;;;1.20;;
10381;SDS011;11635;53.636;10.120;2023-04-03T12:09:13;1.95;;;1.08;;
10381;SDS011;11635;53.636;10.120;2023-04-03T12:11:48;2.65;;;1.40;;
10381;SDS011;11635;53.636;10.120;2023-04-03T12:14:14;2.72;;;1.27;;
10381;SDS011;11635;53.636;10.120;2023-04-03T12:16:42;3.08;;;1.00;;
10381;SDS011;11635;53.636;10.120;2023-04-03T12:22:07;2.78;;;1.20;;
10381;SDS011;11635;53.636;10.120;2023-04-03T12:24:35;1.92;;;1.00;;
10381;SDS011;11635;53.636;10.120;2023-04-03T12:29:55;2.25;;;1.42;;
10381;SDS011;11635;53.636;10.120;2023-04-03T12:35:08;7.00;;;1.60;;
10381;SDS011;11635;53.636;10.120;2023-04-03T12:37:40;2.85;;;1.30;;
10381;SDS011;11635;53.636;10.120;2023-04-03T12:40:13;2.60;;;1.23;;
10381;SDS011;11635;53.636;10.120;2023-04-03T12:42:47;4.38;;;1.40;;
10381;SDS011;11635;53.636;10.120;2023-04-03T12:45:19;2.47;;;1.30;;
10381;SDS011;11635;53.636;10.120;2023-04-03T12:47:46;2.17;;;0.98;;
10381;SDS011;11635;53.636;10.120;2023-04-03T12:50:18;1.10;;;0.90;;
10381;SDS011;11635;53.636;10.120;2023-04-03T12:52:47;2.67;;;0.98;;
10381;SDS011;11635;53.636;10.120;2023-04-03T12:55:18;2.03;;;1.10;;
10381;SDS011;11635;53.636;10.120;2023-04-03T12:57:45;2.13;;;1.00;;
10381;SDS011;11635;53.636;10.120;2023-04-03T13:00:25;2.53;;;1.10;;
10381;SDS011;11635;53.636;10.120;2023-04-03T13:02:52;2.78;;;1.20;;
10381;SDS011;11635;53.636;10.120;2023-04-03T13:05:20;5.13;;;1.60;;
10381;SDS011;11635;53.636;10.120;2023-04-03T13:07:49;3.65;;;1.20;;
10381;SDS011;11635;53.636;10.120;2023-04-03T13:10:18;3.30;;;1.30;;
10381;SDS011;11635;53.636;10.120;2023-04-03T13:12:45;2.40;;;1.10;;
10381;SDS011;11635;53.636;10.120;2023-04-03T13:15:15;2.03;;;1.00;;
10381;SDS011;11635;53.636;10.120;2023-04-03T13:17:41;2.50;;;1.30;;
10381;SDS011;11635;53.636;10.120;2023-04-03T13:20:13;2.25;;;1.05;;
10381;SDS011;11635;53.636;10.120;2023-04-03T13:22:40;1.73;;;1.27;;
10381;SDS011;11635;53.636;10.120;2023-04-03T13:25:10;1.95;;;1.17;;
10381;SDS011;11635;53.636;10.120;2023-04-03T13:27:39;4.07;;;1.20;;
10381;SDS011;11635;53.636;10.120;2023-04-03T13:30:17;2.70;;;1.08;;
10381;SDS011;11635;53.636;10.120;2023-04-03T13:32:45;1.52;;;1.10;;
10381;SDS011;11635;53.636;10.120;2023-04-03T13:35:31;2.03;;;1.23;;
10381;SDS011;11635;53.636;10.120;2023-04-03T13:37:59;1.73;;;1.10;;
10381;SDS011;11635;53.636;10.120;2023-04-03T13:40:25;1.73;;;1.02;;
10381;SDS011;11635;53.636;10.120;2023-04-03T13:43:01;1.75;;;1.20;;
10381;SDS011;11635;53.636;10.120;2023-04-03T13:45:28;1.85;;;0.90;;
10381;SDS011;11635;53.636;10.120;2023-04-03T13:48:06;2.67;;;1.42;;
10381;SDS011;11635;53.636;10.120;2023-04-03T13:50:33;2.50;;;1.30;;
10381;SDS011;11635;53.636;10.120;2023-04-03T13:53:15;1.73;;;0.88;;
10381;SDS011;11635;53.636;10.120;2023-04-03T13:55:51;2.60;;;1.10;;
10381;SDS011;11635;53.636;10.120;2023-04-03T13:58:22;2.55;;;1.20;;
10381;SDS011;11635;53.636;10.120;2023-04-03T14:00:50;1.35;;;1.00;;
10381;SDS011;11635;53.636;10.120;2023-04-03T14:03:18;5.20;;;0.90;;
10381;SDS011;11635;53.636;10.120;2023-04-03T14:05:45;1.05;;;0.80;;
10381;SDS011;11635;53.636;10.120;2023-04-03T14:08:11;2.08;;;1.02;;
10381;SDS011;11635;53.636;10.120;2023-04-03T14:10:38;2.50;;;0.90;;
10381;SDS011;11635;53.636;10.120;2023-04-03T14:13:05;3.00;;;1.15;;
10381;SDS011;11635;53.636;10.120;2023-04-03T14:15:33;2.05;;;1.17;;
10381;SDS011;11635;53.636;10.120;2023-04-03T14:18:00;2.83;;;1.15;;
10381;SDS011;11635;53.636;10.120;2023-04-03T14:20:27;2.28;;;0.93;;
10381;SDS011;11635;53.636;10.120;2023-04-03T14:22:53;2.88;;;1.10;;
10381;SDS011;11635;53.636;10.120;2023-04-03T14:25:20;2.45;;;1.40;;
10381;SDS011;11635;53.636;10.120;2023-04-03T14:27:47;2.78;;;1.27;;
10381;SDS011;11635;53.636;10.120;2023-04-03T14:30:16;2.85;;;1.10;;
10381;SDS011;11635;53.636;10.120;2023-04-03T14:32:43;3.55;;;1.10;;
10381;SDS011;11635;53.636;10.120;2023-04-03T14:35:10;2.22;;;1.23;;
10381;SDS011;11635;53.636;10.120;2023-04-03T14:37:36;1.63;;;0.90;;
10381;SDS011;11635;53.636;10.120;2023-04-03T14:40:03;2.03;;;1.10;;
10381;SDS011;11635;53.636;10.120;2023-04-03T14:42:31;3.47;;;1.65;;
10381;SDS011;11635;53.636;10.120;2023-04-03T14:44:58;1.70;;;1.20;;
10381;SDS011;11635;53.636;10.120;2023-04-03T14:47:25;2.83;;;1.40;;
10381;SDS011;11635;53.636;10.120;2023-04-03T14:49:54;3.83;;;1.35;;
10381;SDS011;11635;53.636;10.120;2023-04-03T14:52:21;2.72;;;1.25;;
10381;SDS011;11635;53.636;10.120;2023-04-03T14:54:48;4.65;;;1.65;;
10381;SDS011;11635;53.636;10.120;2023-04-03T14:57:15;2.90;;;1.30;;
10381;SDS011;11635;53.636;10.120;2023-04-03T14:59:42;3.30;;;1.80;;
10381;SDS011;11635;53.636;10.120;2023-04-03T15:02:12;2.42;;;1.20;;
10381;SDS011;11635;53.636;10.120;2023-04-03T15:04:46;3.25;;;1.17;;
10381;SDS011;11635;53.636;10.120;2023-04-03T15:07:14;1.83;;;1.20;;
10381;SDS011;11635;53.636;10.120;2023-04-03T15:09:41;3.22;;;1.27;;
10381;SDS011;11635;53.636;10.120;2023-04-03T15:12:08;1.90;;;1.15;;
10381;SDS011;11635;53.636;10.120;2023-04-03T15:14:35;2.70;;;1.20;;
10381;SDS011;11635;53.636;10.120;2023-04-03T15:17:01;1.88;;;1.08;;
10381;SDS011;11635;53.636;10.120;2023-04-03T15:19:28;4.40;;;1.70;;
10381;SDS011;11635;53.636;10.120;2023-04-03T15:21:55;2.30;;;1.27;;
10381;SDS011;11635;53.636;10.120;2023-04-03T15:24:23;3.13;;;1.30;;
10381;SDS011;11635;53.636;10.120;2023-04-03T15:26:49;2.38;;;1.30;;
10381;SDS011;11635;53.636;10.120;2023-04-03T15:29:16;3.63;;;1.30;;
10381;SDS011;11635;53.636;10.120;2023-04-03T15:31:42;3.08;;;1.48;;
10381;SDS011;11635;53.636;10.120;2023-04-03T15:34:09;5.20;;;1.50;;
10381;SDS011;11635;53.636;10.120;2023-04-03T15:36:35;2.58;;;1.10;;
10381;SDS011;11635;53.636;10.120;2023-04-03T15:39:02;2.30;;;1.27;;
10381;SDS011;11635;53.636;10.120;2023-04-03T15:41:29;4.07;;;1.40;;
10381;SDS011;11635;53.636;10.120;2023-04-03T15:43:56;2.83;;;1.55;;
10381;SDS011;11635;53.636;10.120;2023-04-03T15:46:22;25.25;;;2.92;;
10381;SDS011;11635;53.636;10.120;2023-04-03T15:48:49;2.08;;;1.30;;
10381;SDS011;11635;53.636;10.120;2023-04-03T15:51:15;1.95;;;1.30;;
10381;SDS011;11635;53.636;10.120;2023-04-03T15:53:41;3.13;;;1.33;;
10381;SDS011;11635;53.636;10.120;2023-04-03T15:56:08;2.75;;;1.50;;
10381;SDS011;11635;53.636;10.120;2023-04-03T15:58:36;2.13;;;1.10;;
10381;SDS011;11635;53.636;10.120;2023-04-03T16:01:02;3.70;;;1.40;;
10381;SDS011;11635;53.636;10.120;2023-04-03T16:03:28;2.78;;;1.40;;
10381;SDS011;11635;53.636;10.120;2023-04-03T16:05:55;3.88;;;1.25;;
10381;SDS011;11635;53.636;10.120;2023-04-03T16:08:22;2.45;;;1.27;;
10381;SDS011;11635;53.636;10.120;2023-04-03T16:10:50;2.42;;;1.30;;
10381;SDS011;11635;53.636;10.120;2023-04-03T16:13:16;4.15;;;1.60;;
10381;SDS011;11635;53.636;10.120;2023-04-03T16:15:44;3.08;;;1.38;;
10381;SDS011;11635;53.636;10.120;2023-04-03T16:18:10;3.42;;;1.50;;
10381;SDS011;11635;53.636;10.120;2023-04-03T16:20:38;3.30;;;1.23;;